createdAt,value
2022-12-06T00:01:51.306Z,6.60
2022-12-06T00:04:18.178Z,6.60
2022-12-06T00:06:48.300Z,6.60
2022-12-06T00:09:24.731Z,6.60
2022-12-06T00:11:52.382Z,6.60
2022-12-06T00:14:20.053Z,6.60
2022-12-06T00:16:47.751Z,6.60
2022-12-06T00:19:18.017Z,6.60
2022-12-06T00:21:45.076Z,6.60
2022-12-06T00:24:21.489Z,6.60
2022-12-06T00:26:50.359Z,6.60
2022-12-06T00:29:23.076Z,6.50
2022-12-06T00:31:50.757Z,6.50
2022-12-06T00:34:17.963Z,6.50
2022-12-06T00:36:44.871Z,6.40
2022-12-06T00:39:15.334Z,6.40
2022-12-06T00:41:42.675Z,6.40
2022-12-06T00:44:10.309Z,6.30
2022-12-06T00:46:38.282Z,6.30
2022-12-06T00:49:08.586Z,6.30
2022-12-06T00:51:37.590Z,6.30
2022-12-06T00:54:05.511Z,6.30
2022-12-06T00:56:34.379Z,6.30
2022-12-06T00:59:01.394Z,6.30
2022-12-06T01:01:30.876Z,6.20
2022-12-06T01:04:01.780Z,6.30
2022-12-06T01:06:33.183Z,6.30
2022-12-06T01:09:05.113Z,6.30
2022-12-06T01:11:32.608Z,6.30
2022-12-06T01:13:59.466Z,6.30
2022-12-06T01:16:29.761Z,6.30
2022-12-06T01:19:01.291Z,6.30
2022-12-06T01:21:29.558Z,6.30
2022-12-06T01:23:57.149Z,6.30
2022-12-06T01:26:31.911Z,6.30
2022-12-06T01:29:00.822Z,6.30
2022-12-06T01:31:35.374Z,6.30
2022-12-06T01:34:04.524Z,6.20
2022-12-06T01:36:31.269Z,6.30
2022-12-06T01:38:58.935Z,6.30
2022-12-06T01:41:27.408Z,6.30
2022-12-06T01:43:54.871Z,6.30
2022-12-06T01:46:44.850Z,6.30
2022-12-06T01:49:21.945Z,6.30
2022-12-06T01:52:00.823Z,6.20
2022-12-06T01:54:28.703Z,6.20
2022-12-06T01:56:57.029Z,6.30
2022-12-06T01:59:25.725Z,6.30
2022-12-06T02:01:53.523Z,6.30
2022-12-06T02:04:23.096Z,6.30
2022-12-06T02:06:51.608Z,6.30
2022-12-06T02:09:20.033Z,6.30
2022-12-06T02:11:47.431Z,6.30
2022-12-06T02:14:18.946Z,6.30
2022-12-06T02:16:52.919Z,6.30
2022-12-06T02:20:00.093Z,6.30
2022-12-06T02:22:39.242Z,6.30
2022-12-06T02:25:46.653Z,6.30
2022-12-06T02:28:43.627Z,6.30
2022-12-06T02:31:22.805Z,6.30
2022-12-06T02:34:12.888Z,6.30
2022-12-06T02:36:47.807Z,6.30
2022-12-06T02:39:40.684Z,6.30
2022-12-06T02:42:15.149Z,6.20
2022-12-06T02:44:48.436Z,6.20
2022-12-06T02:47:18.897Z,6.20
2022-12-06T02:49:50.141Z,6.20
2022-12-06T02:52:20.424Z,6.20
2022-12-06T02:54:49.068Z,6.20
2022-12-06T02:57:15.881Z,6.20
2022-12-06T02:59:54.412Z,6.20
2022-12-06T03:02:23.350Z,6.20
2022-12-06T03:05:24.329Z,6.20
2022-12-06T03:07:52.103Z,6.20
2022-12-06T03:10:51.072Z,6.10
2022-12-06T03:13:29.671Z,6.10
2022-12-06T03:16:15.024Z,6.10
2022-12-06T03:19:00.054Z,6.10
2022-12-06T03:21:33.400Z,6.10
2022-12-06T03:24:00.565Z,6.10
2022-12-06T03:26:32.713Z,6.10
2022-12-06T03:29:01.962Z,6.10
2022-12-06T03:31:32.683Z,6.10
2022-12-06T03:34:06.968Z,6.10
2022-12-06T03:36:34.815Z,6.10
2022-12-06T03:39:05.310Z,6.10
2022-12-06T03:41:57.883Z,6.10
2022-12-06T03:44:26.183Z,6.10
2022-12-06T03:47:05.061Z,6.10
2022-12-06T03:49:41.171Z,6.10
2022-12-06T03:52:09.084Z,6.10
2022-12-06T03:54:42.140Z,6.10
2022-12-06T03:57:09.279Z,6.10
2022-12-06T03:59:36.077Z,6.10
2022-12-06T04:02:02.932Z,6.10
2022-12-06T04:04:29.724Z,6.10
2022-12-06T04:06:56.638Z,6.10
2022-12-06T04:09:41.730Z,6.10
2022-12-06T04:12:28.440Z,6.10
2022-12-06T04:14:55.194Z,6.10
2022-12-06T04:17:40.526Z,6.10
2022-12-06T04:20:08.048Z,6.00
2022-12-06T04:22:53.521Z,6.00
2022-12-06T04:25:20.404Z,6.00
2022-12-06T04:28:05.700Z,6.00
2022-12-06T04:30:51.096Z,6.00
2022-12-06T04:33:36.562Z,6.00
2022-12-06T04:36:22.196Z,6.00
2022-12-06T04:38:49.095Z,6.00
2022-12-06T04:41:35.535Z,6.00
2022-12-06T04:44:04.236Z,6.10
2022-12-06T04:46:31.704Z,6.10
2022-12-06T04:48:58.729Z,6.10
2022-12-06T04:51:25.816Z,6.10
2022-12-06T04:53:52.578Z,6.10
2022-12-06T04:56:19.384Z,6.20
2022-12-06T04:58:46.309Z,6.20
2022-12-06T05:01:13.276Z,6.20
2022-12-06T05:03:44.116Z,6.20
2022-12-06T05:06:11.582Z,6.20
2022-12-06T05:08:38.467Z,6.20
2022-12-06T05:11:05.547Z,6.20
2022-12-06T05:13:32.543Z,6.10
2022-12-06T05:16:03.984Z,6.10
2022-12-06T05:18:31.770Z,6.10
2022-12-06T05:21:20.604Z,6.10
2022-12-06T05:23:47.699Z,6.10
2022-12-06T05:26:18.239Z,6.10
2022-12-06T05:28:46.564Z,6.10
2022-12-06T05:31:14.700Z,6.10
2022-12-06T05:33:41.656Z,6.10
2022-12-06T05:36:11.973Z,6.10
2022-12-06T05:38:38.850Z,6.10
2022-12-06T05:41:05.994Z,6.10
2022-12-06T05:43:33.505Z,6.10
2022-12-06T05:46:00.705Z,6.00
2022-12-06T05:48:28.170Z,6.00
2022-12-06T05:50:54.931Z,6.00
2022-12-06T05:53:22.321Z,6.00
2022-12-06T05:55:49.853Z,6.00
2022-12-06T05:58:17.501Z,6.00
2022-12-06T06:00:49.822Z,6.00
2022-12-06T06:03:18.617Z,6.00
2022-12-06T06:05:51.291Z,6.00
2022-12-06T06:08:18.646Z,6.00
2022-12-06T06:10:45.880Z,6.00
2022-12-06T06:13:12.821Z,6.00
2022-12-06T06:15:39.686Z,6.00
2022-12-06T06:18:06.457Z,6.00
2022-12-06T06:20:33.441Z,6.00
2022-12-06T06:23:00.261Z,6.00
2022-12-06T06:25:27.116Z,6.00
2022-12-06T06:27:54.827Z,5.90
2022-12-06T06:30:21.720Z,5.90
2022-12-06T06:32:48.532Z,6.00
2022-12-06T06:35:15.432Z,6.00
2022-12-06T06:37:42.215Z,6.00
2022-12-06T06:40:11.217Z,6.00
2022-12-06T06:42:38.617Z,6.00
2022-12-06T06:45:06.656Z,6.00
2022-12-06T06:47:33.414Z,6.10
2022-12-06T06:50:00.707Z,6.10
2022-12-06T06:52:27.713Z,6.10
2022-12-06T06:54:54.529Z,6.10
2022-12-06T06:57:22.208Z,6.10
2022-12-06T06:59:48.978Z,6.10
2022-12-06T07:02:17.424Z,6.10
2022-12-06T07:04:45.385Z,6.10
2022-12-06T07:07:17.886Z,6.10
2022-12-06T07:09:47.942Z,6.10
2022-12-06T07:12:15.368Z,6.10
2022-12-06T07:14:42.267Z,6.10
2022-12-06T07:17:09.360Z,6.10
2022-12-06T07:19:36.190Z,6.10
2022-12-06T07:22:02.955Z,6.10
2022-12-06T07:24:29.785Z,6.10
2022-12-06T07:26:57.329Z,6.10
2022-12-06T07:29:24.103Z,6.10
2022-12-06T07:31:50.885Z,6.10
2022-12-06T07:34:17.659Z,6.10
2022-12-06T07:36:44.383Z,6.20
2022-12-06T07:39:14.770Z,6.20
2022-12-06T07:42:00.221Z,6.20
2022-12-06T07:44:45.598Z,6.20
2022-12-06T07:47:12.399Z,6.10
2022-12-06T07:49:39.285Z,6.10
2022-12-06T07:52:06.124Z,6.20
2022-12-06T07:54:32.941Z,6.20
2022-12-06T07:56:59.714Z,6.20
2022-12-06T07:59:26.684Z,6.20
2022-12-06T08:01:54.577Z,6.20
2022-12-06T08:04:21.524Z,6.20
2022-12-06T08:06:48.390Z,6.30
2022-12-06T08:09:15.400Z,6.20
2022-12-06T08:11:42.170Z,6.30
2022-12-06T08:14:10.286Z,6.30
2022-12-06T08:16:37.142Z,6.30
2022-12-06T08:19:04.050Z,6.30
2022-12-06T08:21:30.881Z,6.30
2022-12-06T08:23:57.720Z,6.30
2022-12-06T08:26:24.634Z,6.30
2022-12-06T08:28:51.870Z,6.40
2022-12-06T08:31:22.626Z,6.40
2022-12-06T08:33:50.263Z,6.40
2022-12-06T08:36:20.638Z,6.40
2022-12-06T08:38:48.026Z,6.40
2022-12-06T08:41:33.807Z,6.40
2022-12-06T08:44:02.118Z,6.40
2022-12-06T08:46:31.003Z,6.40
2022-12-06T08:48:58.556Z,6.40
2022-12-06T08:51:25.476Z,6.30
2022-12-06T08:53:54.284Z,6.30
2022-12-06T08:56:22.386Z,6.30
2022-12-06T08:58:49.834Z,6.30
2022-12-06T09:01:22.336Z,6.30
2022-12-06T09:03:49.292Z,6.30
2022-12-06T09:06:17.121Z,6.30
2022-12-06T09:08:45.178Z,6.40
2022-12-06T09:11:12.045Z,6.40
2022-12-06T09:13:39.392Z,6.40
2022-12-06T09:16:13.424Z,6.40
2022-12-06T09:18:40.414Z,6.40
2022-12-06T09:21:09.420Z,6.40
2022-12-06T09:23:37.326Z,6.50
2022-12-06T09:26:05.744Z,6.50
2022-12-06T09:28:36.077Z,6.50
2022-12-06T09:31:04.411Z,6.50
2022-12-06T09:33:31.306Z,6.50
2022-12-06T09:36:20.173Z,6.50
2022-12-06T09:39:00.733Z,6.50
2022-12-06T09:41:45.435Z,6.50
2022-12-06T09:44:59.860Z,6.60
2022-12-06T09:47:54.506Z,6.60
2022-12-06T09:50:47.729Z,6.60
2022-12-06T09:53:38.008Z,6.70
2022-12-06T09:56:49.139Z,6.70
2022-12-06T10:00:09.872Z,6.80
2022-12-06T10:03:14.523Z,6.80
2022-12-06T10:06:02.756Z,6.80
2022-12-06T10:09:03.634Z,6.90
2022-12-06T10:11:50.140Z,6.90
2022-12-06T10:15:03.936Z,6.90
2022-12-06T10:17:59.038Z,6.90
2022-12-06T10:20:41.713Z,6.90
2022-12-06T10:23:19.266Z,7.00
2022-12-06T10:26:06.201Z,7.00
2022-12-06T10:28:43.879Z,7.00
2022-12-06T10:31:28.147Z,7.10
2022-12-06T10:34:17.437Z,7.10
2022-12-06T10:37:24.626Z,7.10
2022-12-06T10:40:08.196Z,7.10
2022-12-06T10:42:43.944Z,7.10
2022-12-06T10:45:48.827Z,7.20
2022-12-06T10:48:34.357Z,7.20
2022-12-06T10:51:20.012Z,7.20
2022-12-06T10:53:59.719Z,7.20
2022-12-06T10:56:32.759Z,7.20
2022-12-06T10:59:24.967Z,7.20
2022-12-06T11:01:53.034Z,7.20
2022-12-06T11:04:32.652Z,7.20
2022-12-06T11:07:12.022Z,7.20
2022-12-06T11:09:45.831Z,7.20
2022-12-06T11:12:34.601Z,7.20
2022-12-06T11:15:22.747Z,7.30
2022-12-06T11:18:02.188Z,7.30
2022-12-06T11:20:39.755Z,7.30
2022-12-06T11:23:11.245Z,7.30
2022-12-06T11:26:06.348Z,7.30
2022-12-06T11:28:52.324Z,7.30
2022-12-06T11:31:29.238Z,7.40
2022-12-06T11:33:58.483Z,7.40
2022-12-06T11:36:26.376Z,7.40
2022-12-06T11:38:53.390Z,7.40
2022-12-06T11:41:31.628Z,7.40
2022-12-06T11:43:59.087Z,7.30
2022-12-06T11:46:27.122Z,7.40
2022-12-06T11:48:58.906Z,7.30
2022-12-06T11:51:25.899Z,7.30
2022-12-06T11:54:14.084Z,7.30
2022-12-06T11:56:40.899Z,7.30
2022-12-06T11:59:28.996Z,7.30
2022-12-06T12:02:02.604Z,7.30
2022-12-06T12:04:39.935Z,7.30
2022-12-06T12:07:16.989Z,7.30
2022-12-06T12:10:00.540Z,7.30
2022-12-06T12:13:02.912Z,7.30
2022-12-06T12:15:29.935Z,7.20
2022-12-06T12:17:58.653Z,7.20
2022-12-06T12:20:37.266Z,7.20
2022-12-06T12:23:18.859Z,7.20
2022-12-06T12:26:14.503Z,7.20
2022-12-06T12:28:43.811Z,7.20
2022-12-06T12:31:17.847Z,7.10
2022-12-06T12:33:45.023Z,7.10
2022-12-06T12:36:28.293Z,7.10
2022-12-06T12:38:57.333Z,7.00
2022-12-06T12:41:43.094Z,7.00
2022-12-06T12:44:37.425Z,6.90
2022-12-06T12:47:20.478Z,6.90
2022-12-06T12:50:04.503Z,6.90
2022-12-06T12:52:41.881Z,6.90
2022-12-06T12:55:24.717Z,6.90
2022-12-06T12:58:00.324Z,6.90
2022-12-06T13:00:42.628Z,6.90
2022-12-06T13:03:48.929Z,6.90
2022-12-06T13:06:04.284Z,6.90
2022-12-06T13:08:36.205Z,6.90
2022-12-06T13:11:05.402Z,6.90
2022-12-06T13:13:45.009Z,6.90
2022-12-06T13:16:18.327Z,6.90
2022-12-06T13:18:55.691Z,6.90
2022-12-06T13:21:34.818Z,6.90
2022-12-06T13:24:10.581Z,6.90
2022-12-06T13:26:49.704Z,6.90
2022-12-06T13:29:35.667Z,6.90
2022-12-06T13:32:14.820Z,6.80
2022-12-06T13:34:49.957Z,6.80
2022-12-06T13:37:34.207Z,6.80
2022-12-06T13:40:02.785Z,6.80
2022-12-06T13:42:38.724Z,6.80
2022-12-06T13:45:39.051Z,6.80
2022-12-06T13:48:24.270Z,6.80
2022-12-06T13:51:02.785Z,6.80
2022-12-06T13:53:33.935Z,6.80
2022-12-06T13:56:31.078Z,6.90
2022-12-06T13:59:00.530Z,6.90
2022-12-06T14:01:41.195Z,6.90
2022-12-06T14:09:50.680Z,6.90
2022-12-06T14:12:27.631Z,6.90
2022-12-06T14:15:00.227Z,6.90
2022-12-06T14:20:30.796Z,6.90
2022-12-06T14:22:57.837Z,6.90
2022-12-06T14:25:29.635Z,6.90
2022-12-06T14:28:10.225Z,6.90
2022-12-06T14:30:37.213Z,6.90
2022-12-06T14:33:22.769Z,6.80
2022-12-06T14:35:52.676Z,6.80
2022-12-06T14:38:28.564Z,6.70
2022-12-06T14:41:14.440Z,6.70
2022-12-06T14:43:46.007Z,6.70
2022-12-06T14:46:15.945Z,6.70
2022-12-06T14:49:02.756Z,6.70
2022-12-06T14:51:42.232Z,6.70
2022-12-06T14:54:39.131Z,6.60
2022-12-06T14:57:44.241Z,6.70
2022-12-06T15:00:26.368Z,6.60
2022-12-06T15:03:08.422Z,6.60
2022-12-06T15:05:43.812Z,6.60
2022-12-06T15:08:25.982Z,6.60
2022-12-06T15:11:45.144Z,6.60
2022-12-06T15:14:21.991Z,6.60
2022-12-06T15:17:26.204Z,6.60
2022-12-06T15:19:53.555Z,6.60
2022-12-06T15:22:25.500Z,6.60
2022-12-06T15:24:56.365Z,6.60
2022-12-06T15:27:27.039Z,6.50
2022-12-06T15:29:54.492Z,6.50
2022-12-06T15:32:25.481Z,6.50
2022-12-06T15:34:52.313Z,6.50
2022-12-06T15:40:07.166Z,6.50
2022-12-06T15:42:33.961Z,6.50
2022-12-06T15:45:01.124Z,6.40
2022-12-06T15:47:28.068Z,6.40
2022-12-06T15:49:57.963Z,6.40
2022-12-06T15:52:24.842Z,6.40
2022-12-06T15:54:52.283Z,6.40
2022-12-06T15:57:19.241Z,6.30
2022-12-06T15:59:46.007Z,6.30
2022-12-06T16:02:18.165Z,6.30
2022-12-06T16:04:48.223Z,6.30
2022-12-06T16:07:18.638Z,6.20
2022-12-06T16:09:46.184Z,6.20
2022-12-06T16:12:13.145Z,6.20
2022-12-06T16:14:39.873Z,6.10
2022-12-06T16:17:06.668Z,6.10
2022-12-06T16:19:52.213Z,6.10
2022-12-06T16:22:39.031Z,6.10
2022-12-06T16:25:06.412Z,6.00
2022-12-06T16:27:33.297Z,6.00
2022-12-06T16:30:00.083Z,6.00
2022-12-06T16:32:26.945Z,6.00
2022-12-06T16:34:53.723Z,6.00
2022-12-06T16:37:20.539Z,6.00
2022-12-06T16:39:47.395Z,6.00
2022-12-06T16:42:14.396Z,6.00
2022-12-06T16:44:50.993Z,6.00
2022-12-06T16:47:18.255Z,6.00
2022-12-06T16:49:47.397Z,6.10
2022-12-06T16:52:16.224Z,6.10
2022-12-06T16:54:43.569Z,6.10
2022-12-06T16:57:14.778Z,6.10
2022-12-06T16:59:42.479Z,6.10
2022-12-06T17:02:30.314Z,6.10
2022-12-06T17:05:00.857Z,6.10
2022-12-06T17:07:28.513Z,6.20
2022-12-06T17:09:56.586Z,6.20
2022-12-06T17:12:23.379Z,6.20
2022-12-06T17:14:50.531Z,6.20
2022-12-06T17:17:21.410Z,6.20
2022-12-06T17:19:49.151Z,6.20
2022-12-06T17:22:16.704Z,6.30
2022-12-06T17:24:43.705Z,6.30
2022-12-06T17:27:13.801Z,6.30
2022-12-06T17:29:41.129Z,6.40
2022-12-06T17:32:07.903Z,6.40
2022-12-06T17:34:34.812Z,6.50
2022-12-06T17:37:02.078Z,6.50
2022-12-06T17:39:28.825Z,6.50
2022-12-06T17:42:34.132Z,6.50
2022-12-06T17:45:01.407Z,6.50
2022-12-06T17:47:28.525Z,6.60
2022-12-06T17:49:56.383Z,6.60
2022-12-06T17:52:23.387Z,6.60
2022-12-06T17:54:50.157Z,6.60
2022-12-06T17:57:18.509Z,6.60
2022-12-06T17:59:47.784Z,6.50
2022-12-06T18:02:19.568Z,6.50
2022-12-06T18:04:47.862Z,6.50
2022-12-06T18:07:16.035Z,6.50
2022-12-06T18:09:43.115Z,6.50
2022-12-06T18:12:12.407Z,6.50
2022-12-06T18:14:39.259Z,6.40
2022-12-06T18:17:06.185Z,6.50
2022-12-06T18:19:33.476Z,6.40
2022-12-06T18:22:00.248Z,6.40
2022-12-06T18:24:31.936Z,6.40
2022-12-06T18:27:01.157Z,6.40
2022-12-06T18:29:27.983Z,6.40
2022-12-06T18:31:54.820Z,6.30
2022-12-06T18:34:21.669Z,6.30
2022-12-06T18:36:48.667Z,6.30
2022-12-06T18:39:17.895Z,6.30
2022-12-06T18:41:45.236Z,6.30
2022-12-06T18:44:13.085Z,6.30
2022-12-06T18:46:42.455Z,6.30
2022-12-06T18:49:11.586Z,6.20
2022-12-06T18:51:39.314Z,6.20
2022-12-06T18:54:06.786Z,6.20
2022-12-06T18:56:35.027Z,6.10
2022-12-06T18:59:06.262Z,6.10
2022-12-06T19:01:36.863Z,6.10
2022-12-06T19:04:06.133Z,6.10
2022-12-06T19:06:35.883Z,6.20
2022-12-06T19:09:11.005Z,6.20
2022-12-06T19:11:40.047Z,6.20
2022-12-06T19:14:07.130Z,6.20
2022-12-06T19:16:49.504Z,6.20
2022-12-06T19:19:23.243Z,6.20
2022-12-06T19:21:52.534Z,6.20
2022-12-06T19:24:23.778Z,6.20
2022-12-06T19:26:52.242Z,6.10
2022-12-06T19:29:19.210Z,6.10
2022-12-06T19:31:46.138Z,6.10
2022-12-06T19:34:25.722Z,6.10
2022-12-06T19:36:54.619Z,6.10
2022-12-06T19:39:23.972Z,6.00
2022-12-06T19:42:10.649Z,6.00
2022-12-06T19:44:37.464Z,6.00
2022-12-06T19:47:04.705Z,6.00
2022-12-06T19:49:31.559Z,6.00
2022-12-06T19:51:58.480Z,6.00
2022-12-06T19:54:31.435Z,6.00
2022-12-06T19:57:00.593Z,6.00
2022-12-06T19:59:31.858Z,6.00
2022-12-06T20:01:58.842Z,6.00
2022-12-06T20:04:32.992Z,6.00
2022-12-06T20:07:00.539Z,6.00
2022-12-06T20:09:30.785Z,6.00
2022-12-06T20:12:04.106Z,6.00
2022-12-06T20:14:47.838Z,5.90
2022-12-06T20:17:19.065Z,5.90
2022-12-06T20:19:46.446Z,5.80
2022-12-06T20:22:15.573Z,5.80
2022-12-06T20:24:42.727Z,5.80
2022-12-06T20:27:10.182Z,5.80
2022-12-06T20:29:37.024Z,5.80
2022-12-06T20:32:04.493Z,5.80
2022-12-06T20:34:34.192Z,5.80
2022-12-06T20:37:03.956Z,5.80
2022-12-06T20:39:35.743Z,5.80
2022-12-06T20:42:05.487Z,5.80
2022-12-06T20:44:32.853Z,5.90
2022-12-06T20:47:00.121Z,5.90
2022-12-06T20:49:27.166Z,5.90
2022-12-06T20:51:54.092Z,5.80
2022-12-06T20:54:21.995Z,5.80
2022-12-06T20:56:51.770Z,5.80
2022-12-06T20:59:19.273Z,5.80
2022-12-06T21:01:46.243Z,5.90
2022-12-06T21:04:14.942Z,5.80
2022-12-06T21:06:42.308Z,5.80
2022-12-06T21:09:09.269Z,5.80
2022-12-06T21:11:36.525Z,5.80
2022-12-06T21:14:04.348Z,5.80
2022-12-06T21:16:34.054Z,5.80
2022-12-06T21:19:04.893Z,5.80
2022-12-06T21:21:35.528Z,5.80
2022-12-06T21:24:05.965Z,5.80
2022-12-06T21:26:33.530Z,5.80
2022-12-06T21:29:00.593Z,5.80
2022-12-06T21:31:40.793Z,5.80
2022-12-06T21:34:07.748Z,5.80
2022-12-06T21:36:34.693Z,5.80
2022-12-06T21:39:01.490Z,5.80
2022-12-06T21:41:28.369Z,5.80
2022-12-06T21:43:55.349Z,5.80
2022-12-06T21:46:26.448Z,5.80
2022-12-06T21:48:55.925Z,5.90
2022-12-06T21:51:25.399Z,5.90
2022-12-06T21:53:53.187Z,5.90
2022-12-06T21:56:23.902Z,5.90
2022-12-06T21:58:51.197Z,5.90
2022-12-06T22:01:24.030Z,5.90
2022-12-06T22:03:53.106Z,5.90
2022-12-06T22:06:20.519Z,5.90
2022-12-06T22:08:49.166Z,6.00
2022-12-06T22:11:20.798Z,6.00
2022-12-06T22:13:48.446Z,6.00
2022-12-06T22:16:16.319Z,6.00
2022-12-06T22:18:46.027Z,6.00
2022-12-06T22:21:22.025Z,6.00
2022-12-06T22:23:48.997Z,6.10
2022-12-06T22:26:21.681Z,6.10
2022-12-06T22:28:49.592Z,6.10
2022-12-06T22:31:26.897Z,6.00
2022-12-06T22:33:56.745Z,6.00
2022-12-06T22:36:24.434Z,6.00
2022-12-06T22:38:54.390Z,6.00
2022-12-06T22:41:21.636Z,6.00
2022-12-06T22:43:58.613Z,6.00
2022-12-06T22:46:27.010Z,6.00
2022-12-06T22:48:56.148Z,5.90
2022-12-06T22:51:25.694Z,5.90
2022-12-06T22:53:55.811Z,5.90
2022-12-06T22:56:23.258Z,5.80
2022-12-06T22:58:59.441Z,5.80
2022-12-06T23:01:31.133Z,5.80
2022-12-06T23:04:02.968Z,5.70
2022-12-06T23:06:30.711Z,5.70
2022-12-06T23:08:57.576Z,5.70
2022-12-06T23:11:35.885Z,5.70
2022-12-06T23:14:04.289Z,5.70
2022-12-06T23:16:32.273Z,5.60
2022-12-06T23:19:01.610Z,5.60
2022-12-06T23:21:35.030Z,5.60
2022-12-06T23:24:09.351Z,5.60
2022-12-06T23:26:43.648Z,5.60
2022-12-06T23:29:11.062Z,5.60
2022-12-06T23:31:41.576Z,5.60
2022-12-06T23:34:15.271Z,5.60
2022-12-06T23:36:43.025Z,5.60
2022-12-06T23:39:10.397Z,5.60
2022-12-06T23:41:37.280Z,5.70
2022-12-06T23:44:05.787Z,5.70
2022-12-06T23:46:36.011Z,5.70
2022-12-06T23:49:04.842Z,5.70
2022-12-06T23:51:37.555Z,5.70
2022-12-06T23:54:07.335Z,5.70
2022-12-06T23:56:38.428Z,5.70
2022-12-06T23:59:07.889Z,5.80
